Time;durP1;ratioP1;P1;durP2;ratioP2;P2;SDS_P1;SDS_P2;PMS_P1;PMS_P2;Temp;Humidity;BMP_temperature;BMP_pressure;BME280_temperature;BME280_humidity;BME280_pressure;Samples;Min_cycle;Max_cycle;Signal;HPM_P1;HPM_P2
2021/03/31 00:00:56;;;;;;;17.20;12.00;;;;;;;27.88;22.16;99300.09;5079055;28;20039;-87
2021/03/31 00:03:22;;;;;;;19.17;13.00;;;;;;;27.98;22.22;99303.97;5083349;28;20043;-87
2021/03/31 00:05:49;;;;;;;19.85;12.48;;;;;;;28.13;21.92;99301.69;5077571;28;20496;-88
2021/03/31 00:08:15;;;;;;;17.77;11.13;;;;;;;28.49;21.21;99300.56;5061975;28;20036;-87
2021/03/31 00:10:51;;;;;;;16.27;10.13;;;;;;;28.53;20.80;99297.66;5084402;28;20033;-87
2021/03/31 00:13:19;;;;;;;14.80;10.38;;;;;;;28.70;20.73;99296.50;5057014;28;20052;-87
2021/03/31 00:15:46;;;;;;;14.63;8.98;;;;;;;28.64;20.77;99295.41;5058733;28;20075;-87
2021/03/31 00:18:16;;;;;;;14.18;9.85;;;;;;;28.61;20.72;99293.47;5065467;28;20505;-87
2021/03/31 00:20:43;;;;;;;19.92;11.77;;;;;;;28.62;20.98;99293.03;5060423;28;20025;-87
2021/03/31 00:23:11;;;;;;;18.05;11.55;;;;;;;28.06;21.46;99300.59;5063890;28;20040;-87
2021/03/31 00:25:38;;;;;;;15.38;10.27;;;;;;;28.04;21.51;99296.59;5053791;28;20024;-87
2021/03/31 00:28:06;;;;;;;12.55;9.18;;;;;;;28.33;21.27;99285.56;5055060;28;20029;-87
2021/03/31 00:30:32;;;;;;;14.30;9.93;;;;;;;28.51;20.78;99286.78;5055369;28;20464;-87
2021/03/31 00:32:59;;;;;;;12.50;8.90;;;;;;;28.66;20.63;99273.97;5060819;28;20033;-86
2021/03/31 00:35:25;;;;;;;10.70;7.65;;;;;;;28.68;21.00;99279.97;5058225;28;20057;-87
2021/03/31 00:37:51;;;;;;;14.40;9.93;;;;;;;28.78;20.56;99277.38;5057860;28;20041;-87
2021/03/31 00:40:21;;;;;;;21.63;13.00;;;;;;;28.40;21.19;99280.53;5058224;28;20061;-87
2021/03/31 00:42:48;;;;;;;17.55;12.02;;;;;;;27.89;21.97;99279.09;5056286;28;20146;-87
2021/03/31 00:45:15;;;;;;;17.15;12.18;;;;;;;27.53;22.41;99264.03;5058881;28;20035;-86
2021/03/31 00:47:42;;;;;;;14.63;11.18;;;;;;;27.48;22.22;99270.16;5044635;28;20050;-86
2021/03/31 00:50:17;;;;;;;13.15;9.65;;;;;;;27.64;22.15;99267.47;5058337;28;20056;-87
2021/03/31 00:52:45;;;;;;;11.30;8.23;;;;;;;28.10;21.68;99263.81;5050315;28;20024;-87
2021/03/31 00:55:13;;;;;;;9.55;7.22;;;;;;;28.35;21.14;99266.13;5061939;28;20037;-87
2021/03/31 00:57:40;;;;;;;10.85;7.22;;;;;;;28.63;20.50;99269.19;5059093;28;20151;-87
2021/03/31 01:00:08;;;;;;;9.20;6.60;;;;;;;28.74;20.38;99266.13;5053217;28;20036;-86
2021/03/31 01:02:36;;;;;;;17.95;11.13;;;;;;;28.63;20.43;99265.56;5046281;28;20499;-86
2021/03/31 01:05:13;;;;;;;13.75;10.05;;;;;;;28.23;21.22;99267.59;5056771;28;20028;-87
2021/03/31 01:07:39;;;;;;;9.98;7.00;;;;;;;28.22;20.95;99270.84;5064721;28;20083;-87
2021/03/31 01:10:08;;;;;;;15.52;10.65;;;;;;;28.29;20.62;99268.66;5056545;28;20032;-87
2021/03/31 01:12:59;;;;;;;10.98;8.60;;;;;;;28.39;20.75;99262.00;5038697;28;20443;-87
2021/03/31 01:15:38;;;;;;;11.37;8.33;;;;;;;28.20;21.01;99267.66;5059176;28;20037;-87
2021/03/31 01:18:22;;;;;;;10.10;7.65;;;;;;;28.33;20.42;99265.78;5059751;28;20057;-86
2021/03/31 01:21:29;;;;;;;9.05;6.97;;;;;;;28.39;19.91;99259.19;5056897;28;20033;-86
2021/03/31 01:24:34;;;;;;;11.75;7.65;;;;;;;28.53;20.02;99258.09;5020356;28;20520;-86
2021/03/31 01:27:22;;;;;;;10.20;7.28;;;;;;;28.34;20.53;99254.03;5056214;28;20037;-86
2021/03/31 01:30:05;;;;;;;12.35;7.95;;;;;;;27.99;20.93;99251.91;5048018;28;20488;-87
2021/03/31 01:32:34;;;;;;;12.27;8.02;;;;;;;28.16;20.45;99259.25;5059588;28;20055;-86
2021/03/31 01:35:09;;;;;;;12.68;8.38;;;;;;;28.03;20.67;99267.56;5047675;28;20044;-86
2021/03/31 01:37:48;;;;;;;12.85;7.95;;;;;;;28.02;20.58;99260.34;5035487;28;20057;-86
2021/03/31 01:40:18;;;;;;;12.73;8.75;;;;;;;27.82;21.18;99261.50;5059385;28;20435;-86
2021/03/31 01:43:00;;;;;;;14.00;9.90;;;;;;;27.66;21.31;99267.81;5062128;28;20056;-86
2021/03/31 01:45:31;;;;;;;12.18;8.60;;;;;;;27.30;21.87;99261.19;5065641;28;20055;-86
2021/03/31 01:48:05;;;;;;;9.38;7.10;;;;;;;27.46;21.71;99263.34;5066406;28;20028;-87
2021/03/31 01:50:33;;;;;;;10.30;8.02;;;;;;;27.60;21.55;99269.56;5063399;28;20032;-86
2021/03/31 01:53:01;;;;;;;7.82;5.78;;;;;;;27.79;20.96;99263.16;5056638;28;20074;-87
2021/03/31 01:55:28;;;;;;;10.48;6.70;;;;;;;27.85;20.69;99263.44;5056731;28;20119;-87
2021/03/31 01:57:56;;;;;;;10.57;7.03;;;;;;;27.86;20.62;99260.22;5065066;28;20808;-87
2021/03/31 02:00:22;;;;;;;10.95;7.20;;;;;;;27.91;20.66;99265.34;5055424;28;20041;-86
2021/03/31 02:02:52;;;;;;;12.90;8.73;;;;;;;27.76;21.09;99269.66;5059441;28;20082;-86
2021/03/31 02:05:19;;;;;;;9.57;6.50;;;;;;;27.60;21.82;99261.09;5054400;28;20029;-87
2021/03/31 02:07:46;;;;;;;11.80;8.50;;;;;;;27.46;21.49;99272.63;5067725;28;20028;-87
2021/03/31 02:10:14;;;;;;;13.80;8.05;;;;;;;27.47;21.58;99265.72;5044771;28;20161;-86
2021/03/31 02:12:42;;;;;;;12.10;7.93;;;;;;;27.46;21.63;99261.34;5068394;28;20040;-86
2021/03/31 02:15:12;;;;;;;13.25;7.43;;;;;;;27.60;21.61;99263.91;5072078;28;20028;-86
2021/03/31 02:17:39;;;;;;;10.93;7.35;;;;;;;27.73;21.38;99261.25;5070792;28;20033;-86
2021/03/31 02:20:07;;;;;;;9.75;6.53;;;;;;;27.71;21.15;99258.88;5092619;28;20400;-87
2021/03/31 02:22:35;;;;;;;6.72;5.38;;;;;;;27.82;20.74;99258.69;5070059;28;20044;-87
2021/03/31 02:25:03;;;;;;;12.07;8.18;;;;;;;27.50;20.75;99249.97;5076984;28;20039;-86
2021/03/31 02:27:30;;;;;;;11.93;7.72;;;;;;;27.48;21.27;99252.44;5073369;28;20427;-87
2021/03/31 02:29:56;;;;;;;11.38;7.88;;;;;;;27.44;21.52;99249.69;5080091;28;20036;-87
2021/03/31 02:32:23;;;;;;;9.73;6.55;;;;;;;27.67;21.11;99246.84;5080896;28;20032;-87
2021/03/31 02:34:54;;;;;;;13.18;8.88;;;;;;;27.50;20.58;99256.44;5083857;28;20024;-86
2021/03/31 02:37:22;;;;;;;10.77;7.18;;;;;;;27.42;20.84;99245.69;5074117;28;20108;-87
2021/03/31 02:39:50;;;;;;;8.30;6.38;;;;;;;27.67;20.88;99244.03;5074543;28;20032;-87
2021/03/31 02:42:18;;;;;;;8.88;6.40;;;;;;;27.87;20.12;99247.69;5077486;28;20036;-87
2021/03/31 02:44:48;;;;;;;5.38;4.25;;;;;;;27.85;19.51;99250.16;5083588;28;20062;-86
2021/03/31 02:47:18;;;;;;;8.43;6.15;;;;;;;27.56;20.04;99248.28;5082799;28;20111;-87
2021/03/31 02:49:48;;;;;;;8.80;6.45;;;;;;;27.35;20.06;99252.22;5083771;28;20034;-87
2021/03/31 02:52:19;;;;;;;6.80;5.20;;;;;;;27.50;20.57;99244.34;5082399;28;20086;-87
2021/03/31 02:54:47;;;;;;;10.95;6.25;;;;;;;27.68;20.19;99244.84;5083735;28;20089;-86
2021/03/31 02:57:13;;;;;;;4.85;4.00;;;;;;;27.69;19.94;99244.41;5080718;28;20036;-86
2021/03/31 02:59:40;;;;;;;7.15;5.32;;;;;;;27.80;19.86;99242.16;5076034;28;20036;-86
2021/03/31 03:02:10;;;;;;;10.15;6.82;;;;;;;27.48;19.35;99239.13;5079047;28;20066;-87
2021/03/31 03:04:40;;;;;;;9.38;5.97;;;;;;;27.00;20.09;99238.69;5077287;28;20043;-87
2021/03/31 03:07:07;;;;;;;9.73;6.70;;;;;;;26.99;19.98;99243.53;5082505;28;20128;-87
2021/03/31 03:09:34;;;;;;;12.85;8.20;;;;;;;26.74;20.70;99243.09;5072993;28;20033;-86
2021/03/31 03:12:01;;;;;;;8.85;6.43;;;;;;;26.88;20.89;99245.72;5073494;28;20047;-86
2021/03/31 03:14:30;;;;;;;8.32;6.43;;;;;;;27.08;21.14;99243.78;5075382;28;20495;-86
2021/03/31 03:16:56;;;;;;;7.97;5.82;;;;;;;27.33;20.45;99243.38;5080208;28;20819;-87
2021/03/31 03:19:22;;;;;;;8.45;6.32;;;;;;;27.59;20.12;99245.38;5074536;28;20024;-87
2021/03/31 03:21:50;;;;;;;6.32;5.38;;;;;;;27.77;19.35;99254.31;5086813;28;20545;-86
2021/03/31 03:24:18;;;;;;;7.25;5.15;;;;;;;27.88;19.04;99240.00;5069282;28;20392;-86
2021/03/31 03:26:44;;;;;;;5.97;5.07;;;;;;;27.95;18.95;99239.88;5074000;28;20040;-86
2021/03/31 03:29:11;;;;;;;9.30;6.32;;;;;;;27.68;19.08;99242.78;5081154;28;20510;-86
2021/03/31 03:31:38;;;;;;;7.25;5.60;;;;;;;27.20;19.49;99243.19;5076334;28;20043;-86
2021/03/31 03:34:08;;;;;;;5.28;4.75;;;;;;;27.20;19.60;99236.75;5071815;28;20036;-86
2021/03/31 03:36:42;;;;;;;7.55;5.90;;;;;;;26.83;19.53;99236.94;5079587;28;20040;-86
2021/03/31 03:39:09;;;;;;;8.23;6.03;;;;;;;26.53;20.34;99243.38;5068965;28;20045;-86
2021/03/31 03:41:35;;;;;;;7.00;4.40;;;;;;;26.64;20.41;99244.81;5083254;28;20032;-86
2021/03/31 03:44:02;;;;;;;6.63;4.60;;;;;;;26.69;20.17;99238.72;5071460;28;20396;-87
2021/03/31 03:46:34;;;;;;;7.80;5.78;;;;;;;26.83;20.04;99234.13;5080348;28;20479;-86
2021/03/31 03:49:02;;;;;;;6.90;5.55;;;;;;;26.95;20.06;99236.34;5078870;28;20488;-86
2021/03/31 03:51:29;;;;;;;5.90;5.03;;;;;;;26.86;20.42;99236.09;5082425;28;20036;-87
2021/03/31 03:53:56;;;;;;;7.75;4.75;;;;;;;26.92;20.32;99228.75;5047742;28;20029;-87
2021/03/31 03:56:23;;;;;;;8.82;5.78;;;;;;;26.80;19.96;99229.31;5077544;28;20045;-87
2021/03/31 03:58:50;;;;;;;6.30;4.75;;;;;;;26.93;19.61;99224.72;5063649;28;20039;-86
2021/03/31 04:01:16;;;;;;;6.13;4.43;;;;;;;27.12;19.52;99227.63;5077946;28;20029;-86
2021/03/31 04:03:43;;;;;;;7.70;4.88;;;;;;;27.24;19.44;99223.38;5076447;28;20114;-87
2021/03/31 04:06:09;;;;;;;4.93;4.25;;;;;;;27.23;19.74;99224.63;5074937;28;20028;-87
2021/03/31 04:08:36;;;;;;;6.82;5.10;;;;;;;27.12;19.74;99224.03;5068591;28;20043;-87
2021/03/31 04:11:03;;;;;;;4.88;3.97;;;;;;;26.78;20.22;99226.13;5072921;28;20488;-87
2021/03/31 04:13:32;;;;;;;6.10;4.35;;;;;;;26.67;19.88;99232.72;5074941;28;20041;-87
2021/03/31 04:16:05;;;;;;;7.70;4.95;;;;;;;26.45;20.31;99231.41;5071090;28;20044;-87
2021/03/31 04:18:34;;;;;;;5.03;4.28;;;;;;;26.35;20.84;99228.75;5079854;28;20032;-87
2021/03/31 04:21:01;;;;;;;6.07;4.88;;;;;;;26.66;20.65;99225.47;5081393;28;20036;-87
2021/03/31 04:23:27;;;;;;;6.13;4.47;;;;;;;27.04;19.84;99231.78;5066133;28;20416;-87
2021/03/31 04:25:57;;;;;;;5.85;5.07;;;;;;;26.94;19.60;99223.47;5071568;28;20043;-87
2021/03/31 04:28:25;;;;;;;4.68;4.18;;;;;;;26.74;19.80;99229.81;5074204;28;20626;-87
2021/03/31 04:30:52;;;;;;;6.07;4.93;;;;;;;26.91;19.86;99225.13;5074165;28;20111;-87
2021/03/31 04:33:20;;;;;;;4.95;3.67;;;;;;;27.07;19.81;99230.91;5068948;28;20029;-87
2021/03/31 04:35:47;;;;;;;7.05;6.10;;;;;;;27.17;19.53;99226.31;5073513;28;20040;-87
2021/03/31 04:38:14;;;;;;;6.13;4.95;;;;;;;27.05;19.82;99218.50;5077764;28;20040;-86
2021/03/31 04:41:01;;;;;;;6.13;4.70;;;;;;;27.00;20.13;99228.19;5084888;28;20037;-87
2021/03/31 04:43:29;;;;;;;5.75;3.92;;;;;;;27.39;19.48;99228.41;5078274;28;20070;-87
2021/03/31 04:46:03;;;;;;;4.13;3.05;;;;;;;27.31;19.41;99217.63;5085824;28;20028;-87
2021/03/31 04:48:48;;;;;;;5.85;4.60;;;;;;;27.16;19.52;99217.09;5091225;28;20454;-87
2021/03/31 04:51:14;;;;;;;5.20;4.03;;;;;;;26.95;19.99;99225.88;5081841;28;20108;-87
2021/03/31 04:53:40;;;;;;;4.78;3.45;;;;;;;27.08;20.21;99224.06;5065268;28;20040;-87
2021/03/31 04:56:07;;;;;;;6.93;5.45;;;;;;;27.09;20.14;99222.84;5079302;28;20044;-87
2021/03/31 04:58:33;;;;;;;5.25;4.45;;;;;;;27.21;20.17;99227.09;5080449;28;20044;-86
2021/03/31 05:01:00;;;;;;;4.68;3.83;;;;;;;27.48;19.83;99221.41;5072709;28;20071;-86
2021/03/31 05:03:27;;;;;;;5.53;4.35;;;;;;;27.79;19.42;99220.84;5072159;28;20404;-86
2021/03/31 05:05:53;;;;;;;5.47;4.60;;;;;;;28.02;19.33;99226.47;5085458;28;20031;-86
2021/03/31 05:08:19;;;;;;;8.48;4.80;;;;;;;28.18;19.34;99222.09;5075225;28;20036;-87
2021/03/31 05:10:46;;;;;;;6.32;4.75;;;;;;;28.35;19.12;99220.94;5084784;28;20021;-87
2021/03/31 05:13:12;;;;;;;5.03;3.97;;;;;;;28.48;19.04;99217.00;5086250;28;20519;-87
2021/03/31 05:15:38;;;;;;;7.07;4.70;;;;;;;28.24;19.18;99226.03;5078255;28;20496;-88
2021/03/31 05:18:05;;;;;;;4.93;4.32;;;;;;;28.34;19.11;99227.81;5088671;28;20032;-89
2021/03/31 05:20:31;;;;;;;5.80;4.28;;;;;;;28.48;18.90;99228.31;5078648;28;20029;-88
2021/03/31 05:22:57;;;;;;;6.80;4.78;;;;;;;28.08;18.80;99229.56;5083621;28;20024;-90
2021/03/31 05:25:23;;;;;;;8.68;5.63;;;;;;;27.57;19.55;99225.25;5086338;28;20055;-89
2021/03/31 05:27:49;;;;;;;10.07;6.65;;;;;;;27.02;20.07;99224.97;5081400;28;20116;-89
2021/03/31 05:30:16;;;;;;;6.97;4.80;;;;;;;27.01;20.62;99226.19;5066218;28;20155;-89
2021/03/31 05:32:42;;;;;;;6.32;4.88;;;;;;;27.50;20.28;99225.38;5086612;28;20073;-88
2021/03/31 05:35:09;;;;;;;7.05;4.68;;;;;;;27.89;19.73;99231.09;5086818;28;20108;-89
2021/03/31 05:37:36;;;;;;;5.93;4.80;;;;;;;27.55;20.20;99227.72;5083457;28;20029;-90
2021/03/31 05:40:04;;;;;;;7.05;4.93;;;;;;;27.76;20.58;99226.53;5076845;28;20063;-88
2021/03/31 05:42:31;;;;;;;7.72;5.60;;;;;;;28.25;20.21;99231.22;5087082;28;20054;-87
2021/03/31 05:44:59;;;;;;;8.10;5.65;;;;;;;28.69;20.20;99227.06;5093479;28;20020;-87
2021/03/31 05:49:53;;;;;;;10.63;7.72;;;;;;;28.93;19.82;99211.56;5094540;28;20516;-87
2021/03/31 05:52:20;;;;;;;16.15;11.93;;;;;;;28.27;20.20;99225.13;5093030;28;20107;-87
2021/03/31 05:54:46;;;;;;;28.63;19.75;;;;;;;27.90;20.82;99221.41;5093668;28;20028;-87
2021/03/31 05:57:13;;;;;;;65.25;44.58;;;;;;;27.82;21.00;99217.13;5094508;28;20051;-87
2021/03/31 05:59:40;;;;;;;33.67;22.48;;;;;;;27.88;21.16;99218.22;5092641;28;20032;-87
2021/03/31 06:02:10;;;;;;;26.30;16.92;;;;;;;28.05;21.22;99213.50;5092075;28;20043;-88
2021/03/31 06:04:36;;;;;;;18.90;13.87;;;;;;;28.42;21.32;99217.97;5089498;28;20125;-88
2021/03/31 06:07:03;;;;;;;16.98;11.25;;;;;;;28.55;21.39;99218.88;5074430;28;20769;-88
2021/03/31 06:09:29;;;;;;;14.48;10.50;;;;;;;28.62;21.53;99202.59;5086691;28;20040;-87
2021/03/31 06:11:58;;;;;;;14.00;10.40;;;;;;;28.94;21.56;99209.53;5082797;28;20045;-87
2021/03/31 06:14:30;;;;;;;16.38;12.73;;;;;;;29.00;22.47;99208.56;5055165;28;20480;-87
2021/03/31 06:17:12;;;;;;;18.90;13.10;;;;;;;28.42;22.66;99218.78;5068567;28;20115;-86
2021/03/31 06:19:41;;;;;;;23.58;16.58;;;;;;;28.55;22.61;99219.69;5060670;28;20036;-87
2021/03/31 06:22:36;;;;;;;22.58;15.27;;;;;;;29.01;22.48;99212.19;5072348;28;20104;-86
2021/03/31 06:25:20;;;;;;;17.15;11.68;;;;;;;29.20;22.36;99205.69;5054593;28;20033;-87
2021/03/31 06:27:58;;;;;;;15.20;10.90;;;;;;;29.32;22.66;99208.59;5064157;28;20041;-87
2021/03/31 06:30:28;;;;;;;19.98;11.40;;;;;;;29.43;22.91;99208.31;5068208;28;20040;-87
2021/03/31 06:32:55;;;;;;;16.48;11.52;;;;;;;29.29;23.27;99209.47;5054365;28;20029;-87
2021/03/31 06:35:25;;;;;;;15.93;10.40;;;;;;;28.95;23.92;99219.59;5073438;28;20036;-87
2021/03/31 06:38:03;;;;;;;14.80;9.88;;;;;;;29.09;23.55;99222.88;5073912;28;20040;-87
2021/03/31 06:40:44;;;;;;;14.13;10.35;;;;;;;29.35;24.06;99216.22;5058851;28;20388;-86
2021/03/31 06:46:09;;;;;;;15.63;10.68;;;;;;;29.29;24.29;99206.66;5070565;28;20090;-87
2021/03/31 06:48:42;;;;;;;16.92;13.00;;;;;;;29.26;24.12;99218.88;5061669;28;20037;-87
2021/03/31 06:51:29;;;;;;;14.13;10.68;;;;;;;29.50;23.82;99215.84;5070255;28;20044;-87
2021/03/31 06:53:56;;;;;;;12.55;8.90;;;;;;;29.65;23.60;99209.34;5071344;28;20086;-86
2021/03/31 06:56:29;;;;;;;12.00;8.65;;;;;;;30.39;23.23;99206.50;5055628;28;20521;-86
2021/03/31 06:58:57;;;;;;;9.15;7.28;;;;;;;30.64;22.94;99215.81;5073613;28;20032;-87
2021/03/31 07:01:31;;;;;;;12.68;9.57;;;;;;;30.60;23.28;99215.16;5068443;28;20124;-87
2021/03/31 07:03:59;;;;;;;9.40;6.28;;;;;;;30.90;22.31;99207.38;5071663;28;20033;-86
2021/03/31 07:06:25;;;;;;;10.32;7.50;;;;;;;31.21;22.39;99208.34;5073090;28;20468;-88
2021/03/31 07:08:51;;;;;;;9.95;6.68;;;;;;;31.54;21.90;99201.19;5053870;28;20078;-87
2021/03/31 07:11:41;;;;;;;8.63;5.97;;;;;;;31.61;22.33;99208.66;5073298;28;20038;-87
2021/03/31 07:14:11;;;;;;;9.75;5.80;;;;;;;31.94;22.45;99205.00;5091057;28;20032;-87
2021/03/31 07:16:39;;;;;;;8.75;5.80;;;;;;;32.30;21.91;99212.25;5067888;28;20031;-87
2021/03/31 07:19:06;;;;;;;7.07;5.20;;;;;;;32.66;21.75;99212.50;5093271;28;20541;-88
2021/03/31 07:21:32;;;;;;;10.25;7.53;;;;;;;32.80;20.52;99205.44;5093517;28;20470;-88
2021/03/31 07:23:59;;;;;;;8.85;6.35;;;;;;;32.73;21.64;99203.66;5093626;28;20035;-88
2021/03/31 07:26:26;;;;;;;9.90;7.25;;;;;;;32.81;20.55;99193.59;5079934;28;20028;-88
2021/03/31 07:28:53;;;;;;;9.57;6.55;;;;;;;33.00;20.63;99200.16;5077632;28;20064;-88
2021/03/31 07:31:28;;;;;;;8.63;6.47;;;;;;;32.97;20.96;99199.03;5075140;28;20168;-88
2021/03/31 07:34:28;;;;;;;9.00;6.28;;;;;;;33.10;20.68;99198.94;5093083;28;20055;-87
2021/03/31 07:36:55;;;;;;;7.75;6.22;;;;;;;33.17;20.89;99181.56;5092201;28;20036;-87
2021/03/31 07:39:27;;;;;;;8.48;6.03;;;;;;;33.21;20.74;99188.69;5092228;28;20039;-86
2021/03/31 07:41:55;;;;;;;8.85;5.88;;;;;;;32.99;20.36;99190.81;5090346;28;20115;-87
2021/03/31 07:44:30;;;;;;;9.32;6.93;;;;;;;32.95;20.38;99192.22;5090941;28;20095;-87
2021/03/31 07:46:57;;;;;;;11.27;6.57;;;;;;;32.82;21.15;99186.66;5091568;28;20032;-87
2021/03/31 07:49:25;;;;;;;8.88;6.20;;;;;;;33.03;21.71;99188.66;5093154;28;20089;-88
2021/03/31 07:51:59;;;;;;;10.70;6.22;;;;;;;33.09;21.00;99192.47;5085114;28;20043;-87
2021/03/31 07:54:26;;;;;;;8.10;5.43;;;;;;;33.25;21.62;99186.50;5087236;28;20085;-88
2021/03/31 07:56:54;;;;;;;14.52;6.40;;;;;;;33.31;20.61;99186.66;5079688;28;20067;-88
2021/03/31 07:59:21;;;;;;;9.07;6.22;;;;;;;33.38;20.86;99187.16;5092978;28;20032;-88
2021/03/31 08:01:52;;;;;;;7.80;5.57;;;;;;;33.53;21.26;99192.28;5080279;28;20035;-88
2021/03/31 08:04:21;;;;;;;10.80;6.65;;;;;;;33.73;20.94;99178.34;5080670;28;20110;-88
2021/03/31 08:06:50;;;;;;;10.32;5.82;;;;;;;33.88;20.82;99182.16;5084952;28;20031;-87
2021/03/31 08:09:19;;;;;;;10.18;6.07;;;;;;;33.80;20.43;99175.19;5086122;28;20043;-88
2021/03/31 08:11:47;;;;;;;12.48;7.88;;;;;;;33.29;20.21;99177.81;5093347;28;20048;-88
2021/03/31 08:14:16;;;;;;;8.05;5.60;;;;;;;32.52;19.28;99178.91;5073224;28;20104;-88
2021/03/31 08:16:44;;;;;;;13.98;9.02;;;;;;;30.97;22.71;99181.63;5095593;28;20043;-87
2021/03/31 08:19:15;;;;;;;10.77;8.23;;;;;;;30.45;23.13;99184.84;5097571;28;20037;-87
2021/03/31 08:21:47;;;;;;;14.93;9.48;;;;;;;30.42;22.03;99175.22;5094935;28;20450;-87
2021/03/31 08:24:15;;;;;;;12.40;8.05;;;;;;;30.73;22.73;99167.75;5096284;28;20468;-87
2021/03/31 08:26:44;;;;;;;13.10;8.60;;;;;;;30.69;22.04;99172.72;5096069;28;20035;-88
2021/03/31 08:29:19;;;;;;;9.68;7.28;;;;;;;30.27;22.64;99171.19;5097196;28;20032;-87
2021/03/31 08:31:57;;;;;;;13.95;10.10;;;;;;;30.12;23.57;99172.06;5078677;28;20028;-87
2021/03/31 08:34:24;;;;;;;14.65;9.65;;;;;;;30.62;22.97;99166.50;5097012;28;20034;-87
2021/03/31 08:36:51;;;;;;;14.30;8.05;;;;;;;31.90;21.38;99161.72;5096774;28;20032;-87
2021/03/31 08:39:17;;;;;;;17.67;12.15;;;;;;;31.65;21.69;99161.06;5096003;28;20070;-87
2021/03/31 08:41:46;;;;;;;15.05;9.98;;;;;;;30.70;22.10;99156.53;5088239;28;20051;-87
2021/03/31 08:44:31;;;;;;;12.23;6.72;;;;;;;31.71;23.27;99159.22;5086172;28;21714;-87
2021/03/31 08:47:10;;;;;;;9.73;7.32;;;;;;;32.88;20.83;99136.41;5085313;28;20092;-87
2021/03/31 08:49:37;;;;;;;9.50;6.40;;;;;;;33.53;20.49;99152.41;5081861;28;20036;-87
2021/03/31 08:52:06;;;;;;;8.85;5.88;;;;;;;33.94;20.39;99143.22;5081319;28;20036;-87
2021/03/31 08:54:38;;;;;;;9.18;5.88;;;;;;;34.05;19.71;99143.56;5082355;28;20530;-87
2021/03/31 08:57:07;;;;;;;7.80;5.00;;;;;;;34.34;19.79;99126.69;5081215;28;20040;-87
2021/03/31 08:59:35;;;;;;;18.05;11.23;;;;;;;33.77;19.19;99139.13;5081534;28;20040;-87
2021/03/31 09:02:03;;;;;;;10.25;7.32;;;;;;;33.09;19.98;99141.25;5086595;28;20040;-87
2021/03/31 09:04:31;;;;;;;8.23;5.80;;;;;;;33.33;19.66;99133.69;5075585;28;20027;-87
2021/03/31 09:06:58;;;;;;;12.40;8.45;;;;;;;31.95;21.21;99132.72;5092008;28;20078;-87
2021/03/31 09:09:30;;;;;;;16.38;11.10;;;;;;;31.86;21.50;99135.50;5094388;28;20021;-87
2021/03/31 09:12:01;;;;;;;11.73;8.32;;;;;;;32.27;21.15;99131.53;5088852;28;20045;-87
2021/03/31 09:14:28;;;;;;;8.18;5.93;;;;;;;33.07;21.81;99123.81;5074742;28;20033;-87
2021/03/31 09:17:09;;;;;;;11.20;6.60;;;;;;;33.29;20.37;99126.56;5074869;28;20040;-87
2021/03/31 09:19:40;;;;;;;8.38;5.75;;;;;;;33.95;20.46;99117.09;5072399;28;20412;-86
2021/03/31 09:22:28;;;;;;;9.35;7.15;;;;;;;33.98;19.34;99112.50;5073607;28;20040;-87
2021/03/31 09:25:05;;;;;;;11.07;7.07;;;;;;;34.37;19.49;99113.53;5069119;28;20039;-85
2021/03/31 09:27:33;;;;;;;7.82;5.88;;;;;;;34.33;19.12;99118.63;5067976;28;20074;-84
2021/03/31 09:30:04;;;;;;;7.07;5.05;;;;;;;34.58;19.21;99113.31;5072482;28;20033;-85
2021/03/31 09:32:35;;;;;;;8.25;4.63;;;;;;;34.83;19.00;99097.03;5069786;28;20043;-87
2021/03/31 09:35:13;;;;;;;10.07;6.72;;;;;;;34.61;18.61;99100.94;5070781;28;20028;-87
2021/03/31 09:37:48;;;;;;;8.48;5.32;;;;;;;34.72;18.62;99100.41;5066289;28;20053;-87
2021/03/31 09:40:26;;;;;;;8.13;4.95;;;;;;;34.74;19.30;99090.09;5073721;28;20036;-88
2021/03/31 09:43:03;;;;;;;8.90;5.72;;;;;;;34.02;20.06;99096.03;5066211;28;20032;-88
2021/03/31 09:45:31;;;;;;;5.93;4.32;;;;;;;34.68;18.97;99097.72;5070253;28;20484;-88
2021/03/31 09:47:59;;;;;;;8.30;3.50;;;;;;;35.17;19.06;99091.59;5073255;28;20078;-88
2021/03/31 09:50:27;;;;;;;5.75;3.75;;;;;;;35.24;18.65;99087.59;5068631;28;20488;-86
2021/03/31 09:52:58;;;;;;;6.10;4.18;;;;;;;35.09;18.69;99081.84;5066769;28;20103;-86
2021/03/31 09:55:24;;;;;;;6.28;3.60;;;;;;;35.13;17.93;99091.00;5068824;28;20036;-86
2021/03/31 09:57:52;;;;;;;4.28;3.17;;;;;;;34.54;18.40;99084.16;5066816;28;20040;-85
2021/03/31 10:00:21;;;;;;;4.38;2.63;;;;;;;34.78;19.13;99081.34;5071535;28;20099;-85
2021/03/31 10:02:48;;;;;;;7.45;4.63;;;;;;;34.54;19.21;99077.69;5071045;28;20075;-85
2021/03/31 10:05:25;;;;;;;4.60;2.95;;;;;;;34.96;18.90;99080.47;5073156;28;20476;-86
2021/03/31 10:08:23;;;;;;;3.67;2.63;;;;;;;35.19;18.50;99077.66;5071472;28;20032;-86
2021/03/31 10:10:59;;;;;;;3.10;2.08;;;;;;;35.41;18.62;99071.59;5070145;28;20388;-86
2021/03/31 10:13:25;;;;;;;3.70;2.10;;;;;;;35.13;19.12;99078.78;5068761;28;20076;-86
2021/03/31 10:16:00;;;;;;;2.75;1.85;;;;;;;35.59;18.86;99073.53;5062387;28;20037;-86
2021/03/31 10:18:27;;;;;;;3.45;1.83;;;;;;;36.00;17.60;99073.31;5072749;28;20036;-86
2021/03/31 10:20:57;;;;;;;3.53;2.70;;;;;;;35.76;18.37;99074.63;5054613;28;20064;-86
2021/03/31 10:23:27;;;;;;;3.72;1.77;;;;;;;36.04;18.60;99075.94;5059538;28;20032;-86
2021/03/31 10:26:13;;;;;;;3.80;2.50;;;;;;;36.03;17.85;99075.19;5058138;28;20047;-86
2021/03/31 10:28:39;;;;;;;6.93;4.63;;;;;;;34.99;19.46;99074.56;5055031;28;20025;-86
2021/03/31 10:31:24;;;;;;;5.10;4.05;;;;;;;34.40;18.86;99072.66;5053718;28;20033;-87
2021/03/31 10:33:51;;;;;;;6.47;5.00;;;;;;;33.16;19.98;99069.00;5053634;28;20029;-87
2021/03/31 10:48:30;;;;;;;4.75;3.60;;;;;;;34.09;19.65;99044.41;5061762;28;20037;-85
2021/03/31 10:51:02;;;;;;;4.43;3.10;;;;;;;35.30;18.80;99039.94;5051741;28;20048;-85
2021/03/31 10:53:40;;;;;;;4.53;3.58;;;;;;;35.08;18.84;99033.78;5064739;28;20393;-85
2021/03/31 10:56:06;;;;;;;6.13;4.97;;;;;;;32.69;21.63;99035.22;5052513;28;20577;-84
2021/03/31 10:58:32;;;;;;;8.68;5.25;;;;;;;32.51;22.55;99035.94;5061540;28;20026;-84
2021/03/31 11:00:59;;;;;;;3.85;3.22;;;;;;;32.89;22.23;99037.59;5069495;28;20031;-84
2021/03/31 11:03:26;;;;;;;8.18;5.38;;;;;;;32.40;22.04;99027.03;5067042;28;20029;-84
2021/03/31 11:05:53;;;;;;;11.88;7.53;;;;;;;31.21;23.23;99021.88;5072783;28;20503;-84
2021/03/31 11:08:21;;;;;;;10.13;7.28;;;;;;;30.60;24.93;99022.38;5071643;28;20071;-84
2021/03/31 11:10:47;;;;;;;8.52;6.10;;;;;;;30.90;23.60;99023.03;5049614;28;20055;-84
2021/03/31 11:13:13;;;;;;;8.13;5.65;;;;;;;31.92;23.41;99013.53;5077261;28;20046;-84
2021/03/31 11:15:39;;;;;;;5.15;4.03;;;;;;;31.91;23.13;99012.75;5073303;28;20033;-84
2021/03/31 11:18:15;;;;;;;4.72;3.30;;;;;;;32.01;21.59;99007.94;5087645;28;20492;-85
2021/03/31 11:25:54;;;;;;;7.20;3.65;;;;;;;35.79;18.28;99007.91;5084440;28;20043;-85
2021/03/31 11:28:21;;;;;;;3.30;2.53;;;;;;;34.54;17.84;99009.22;5092157;28;20024;-85
2021/03/31 11:30:48;;;;;;;3.90;3.00;;;;;;;33.48;20.22;99004.91;5089787;28;20043;-85
2021/03/31 11:33:14;;;;;;;4.15;2.70;;;;;;;32.88;21.85;98996.22;5091411;28;20048;-86
2021/03/31 11:35:41;;;;;;;6.13;4.15;;;;;;;30.33;24.04;98993.72;5093414;28;20127;-86
2021/03/31 11:38:07;;;;;;;4.47;3.03;;;;;;;30.80;24.26;98990.91;5091558;28;20028;-86
2021/03/31 11:40:34;;;;;;;3.75;2.58;;;;;;;32.15;20.38;98987.47;5089993;28;20036;-86
2021/03/31 11:43:00;;;;;;;4.10;2.55;;;;;;;32.32;21.45;98977.44;5087637;28;20034;-87
2021/03/31 11:45:27;;;;;;;2.03;1.83;;;;;;;34.34;18.93;98969.03;5067029;28;20495;-86
2021/03/31 11:47:53;;;;;;;2.35;1.45;;;;;;;35.87;18.33;98969.84;5084932;28;20034;-87
2021/03/31 11:50:25;;;;;;;5.10;2.25;;;;;;;34.01;19.48;98969.03;5083688;28;20031;-86
2021/03/31 11:52:52;;;;;;;3.00;1.70;;;;;;;32.41;21.44;98971.78;5073521;28;20116;-86
2021/03/31 11:55:19;;;;;;;4.35;2.53;;;;;;;31.75;22.98;98961.06;5073338;28;20032;-85
2021/03/31 11:57:45;;;;;;;2.55;1.98;;;;;;;33.61;19.47;98960.00;5087093;28;20052;-86
2021/03/31 12:00:12;;;;;;;2.35;1.50;;;;;;;33.63;20.98;98963.16;5090896;28;20404;-85
2021/03/31 12:02:38;;;;;;;3.70;1.55;;;;;;;34.87;18.82;98957.81;5090682;28;20028;-85
2021/03/31 12:05:04;;;;;;;1.42;1.30;;;;;;;35.69;17.73;98949.28;5089974;28;20048;-87